createdAt,value
2022-10-04T00:00:53.585Z,99.9
2022-10-04T00:02:56.759Z,99.9
2022-10-04T00:04:56.361Z,99.9
2022-10-04T00:06:56.044Z,99.9
2022-10-04T00:08:55.763Z,99.9
2022-10-04T00:10:55.444Z,99.9
2022-10-04T00:12:55.136Z,99.9
2022-10-04T00:16:57.907Z,99.9
2022-10-04T00:18:57.584Z,99.9
2022-10-04T00:20:57.279Z,99.9
2022-10-04T00:22:57.022Z,99.9
2022-10-04T00:24:56.687Z,99.9
2022-10-04T00:26:56.381Z,99.9
2022-10-04T00:28:56.080Z,99.9
2022-10-04T00:32:58.841Z,99.9
2022-10-04T00:34:58.578Z,99.9
2022-10-04T00:37:20.339Z,99.9
2022-10-04T00:39:20.021Z,99.9
2022-10-04T00:43:22.820Z,99.9
2022-10-04T00:45:22.506Z,99.9
2022-10-04T00:47:22.178Z,99.9
2022-10-04T00:49:21.909Z,99.9
2022-10-04T00:51:21.592Z,99.9
2022-10-04T00:53:21.263Z,99.9
2022-10-04T00:55:20.971Z,99.9
2022-10-04T00:57:24.055Z,99.9
2022-10-04T00:59:23.764Z,99.9
2022-10-04T01:01:23.574Z,99.9
2022-10-04T01:03:23.128Z,99.9
2022-10-04T01:05:22.808Z,99.9
2022-10-04T01:07:22.474Z,99.9
2022-10-04T01:09:22.190Z,99.9
2022-10-04T01:11:25.296Z,99.9
2022-10-04T01:15:24.729Z,99.9
2022-10-04T01:17:24.375Z,99.9
2022-10-04T01:19:24.050Z,99.9
2022-10-04T01:21:23.741Z,99.9
2022-10-04T01:23:23.454Z,99.9
2022-10-04T01:25:26.524Z,99.9
2022-10-04T01:27:26.240Z,99.9
2022-10-04T01:29:25.933Z,99.9
2022-10-04T01:30:27.500Z,99.9
2022-10-04T01:32:27.195Z,99.9
2022-10-04T01:34:26.880Z,99.9
2022-10-04T01:36:26.581Z,99.9
2022-10-04T01:40:29.387Z,99.9
2022-10-04T01:42:29.091Z,99.9
2022-10-04T01:44:28.776Z,99.9
2022-10-04T01:46:28.559Z,99.9
2022-10-04T01:48:28.205Z,99.9
2022-10-04T01:50:27.890Z,99.9
2022-10-04T01:52:30.992Z,99.9
2022-10-04T01:54:30.690Z,99.9
2022-10-04T01:56:30.412Z,99.9
2022-10-04T01:58:30.121Z,99.9
2022-10-04T02:00:29.825Z,99.9
2022-10-04T02:02:29.549Z,99.9
2022-10-04T02:04:29.282Z,99.9
2022-10-04T02:06:32.356Z,99.9
2022-10-04T02:08:32.045Z,99.9
2022-10-04T02:10:31.762Z,99.9
2022-10-04T02:12:31.547Z,99.9
2022-10-04T02:16:31.001Z,99.9
2022-10-04T02:18:30.601Z,99.9
2022-10-04T02:20:33.724Z,99.9
2022-10-04T02:22:33.439Z,99.9
2022-10-04T02:24:33.150Z,99.9
2022-10-04T02:25:36.277Z,99.9
2022-10-04T02:27:35.924Z,99.9
2022-10-04T02:29:35.639Z,99.9
2022-10-04T02:31:35.429Z,99.9
2022-10-04T02:33:38.438Z,99.9
2022-10-04T02:35:38.151Z,99.9
2022-10-04T02:37:37.863Z,99.9
2022-10-04T02:39:37.577Z,99.9
2022-10-04T02:41:37.295Z,99.9
2022-10-04T02:43:36.998Z,99.9
2022-10-04T02:45:36.724Z,99.9
2022-10-04T02:47:39.822Z,99.9
2022-10-04T02:49:39.540Z,99.9
2022-10-04T02:51:39.395Z,99.9
2022-10-04T02:53:39.005Z,99.9
2022-10-04T02:55:38.710Z,99.9
2022-10-04T02:57:38.441Z,99.9
2022-10-04T02:59:38.163Z,99.9
2022-10-04T03:01:41.779Z,99.9
2022-10-04T03:03:41.034Z,99.9
2022-10-04T03:05:40.800Z,99.9
2022-10-04T03:07:40.541Z,99.9
2022-10-04T03:09:40.237Z,99.9
2022-10-04T03:11:40.159Z,99.9
2022-10-04T03:20:43.856Z,99.9
2022-10-04T03:22:46.740Z,99.9
2022-10-04T03:24:43.353Z,99.9
2022-10-04T03:26:43.065Z,99.9
2022-10-04T03:28:46.220Z,99.9
2022-10-04T03:30:45.971Z,99.9
2022-10-04T03:32:45.675Z,99.9
2022-10-04T03:34:45.447Z,99.9
2022-10-04T03:36:45.190Z,99.9
2022-10-04T03:38:44.914Z,99.9
2022-10-04T03:40:44.648Z,99.9
2022-10-04T03:42:47.768Z,99.9
2022-10-04T03:44:47.520Z,99.9
2022-10-04T03:46:47.265Z,99.9
2022-10-04T03:48:46.984Z,99.9
2022-10-04T03:50:47.644Z,99.9
2022-10-04T03:52:47.387Z,99.9
2022-10-04T03:54:47.094Z,99.9
2022-10-04T03:56:50.239Z,99.9
2022-10-04T03:58:49.970Z,99.9
2022-10-04T04:00:49.795Z,99.9
2022-10-04T04:02:49.443Z,99.9
2022-10-04T04:04:49.196Z,99.9
2022-10-04T04:06:48.929Z,99.9
2022-10-04T04:08:48.645Z,99.9
2022-10-04T04:10:51.785Z,99.9
2022-10-04T04:12:51.542Z,99.9
2022-10-04T04:17:13.075Z,99.9
2022-10-04T04:19:12.808Z,99.9
2022-10-04T04:21:12.553Z,99.9
2022-10-04T04:23:15.713Z,99.9
2022-10-04T04:33:18.953Z,99.9
2022-10-04T04:35:14.212Z,99.9
2022-10-04T04:37:17.472Z,99.9
2022-10-04T04:39:17.306Z,99.9
2022-10-04T04:41:17.073Z,99.9
2022-10-04T04:43:16.863Z,99.9
2022-10-04T04:45:16.678Z,99.9
2022-10-04T04:49:16.311Z,99.9
2022-10-04T04:53:19.509Z,99.9
2022-10-04T04:55:19.343Z,99.9
2022-10-04T04:57:19.103Z,99.9
2022-10-04T04:59:18.859Z,99.9
2022-10-04T05:01:18.679Z,99.9
2022-10-04T05:03:18.405Z,99.9
2022-10-04T05:05:21.665Z,99.9
2022-10-04T05:07:21.436Z,99.9
2022-10-04T05:09:21.275Z,99.9
2022-10-04T05:10:22.860Z,99.9
2022-10-04T05:12:22.692Z,99.9
2022-10-04T05:14:22.475Z,99.9
2022-10-04T05:16:22.355Z,99.9
2022-10-04T05:18:25.465Z,99.9
2022-10-04T05:20:25.196Z,99.9
2022-10-04T05:22:25.015Z,99.9
2022-10-04T05:24:24.819Z,99.9
2022-10-04T05:26:24.600Z,99.9
2022-10-04T05:32:27.388Z,99.9
2022-10-04T05:34:27.230Z,99.9
2022-10-04T05:36:27.127Z,99.9
2022-10-04T05:38:26.707Z,99.9
2022-10-04T05:40:26.501Z,99.9
2022-10-04T05:42:26.256Z,99.9
2022-10-04T05:44:26.112Z,99.9
2022-10-04T05:46:29.385Z,99.9
2022-10-04T05:48:29.083Z,99.9
2022-10-04T05:50:28.886Z,99.9
2022-10-04T05:52:28.734Z,99.9
2022-10-04T05:54:28.581Z,99.9
2022-10-04T05:56:28.333Z,99.9
2022-10-04T05:58:28.106Z,99.9
2022-10-04T06:00:31.272Z,99.9
2022-10-04T06:02:31.250Z,99.9
2022-10-04T06:04:30.971Z,99.9
2022-10-04T06:05:32.561Z,99.9
2022-10-04T06:07:32.410Z,99.9
2022-10-04T06:09:32.249Z,99.9
2022-10-04T06:11:32.020Z,99.9
2022-10-04T06:13:35.385Z,99.9
2022-10-04T06:15:35.206Z,99.9
2022-10-04T06:17:34.983Z,99.9
2022-10-04T06:19:34.805Z,99.9
2022-10-04T06:21:34.561Z,99.9
2022-10-04T06:23:34.333Z,99.9
2022-10-04T06:25:34.092Z,99.9
2022-10-04T06:27:37.274Z,99.9
2022-10-04T06:29:37.120Z,99.9
2022-10-04T06:31:36.838Z,99.9
2022-10-04T06:35:36.394Z,99.9
2022-10-04T06:37:36.127Z,99.9
2022-10-04T06:39:35.889Z,99.9
2022-10-04T06:41:39.031Z,99.9
2022-10-04T06:43:38.794Z,99.9
2022-10-04T06:45:38.593Z,99.9
2022-10-04T06:47:38.473Z,99.9
2022-10-04T06:49:38.097Z,99.9
2022-10-04T06:51:37.895Z,99.9
2022-10-04T06:53:37.640Z,99.9
2022-10-04T06:55:40.781Z,99.9
2022-10-04T06:57:40.573Z,99.9
2022-10-04T06:59:40.278Z,99.9
2022-10-04T07:00:41.889Z,99.9
2022-10-04T07:02:41.860Z,99.9
2022-10-04T07:05:07.163Z,99.9
2022-10-04T07:06:41.216Z,99.9
2022-10-04T07:10:44.238Z,99.9
2022-10-04T07:12:43.986Z,99.9
2022-10-04T07:14:43.729Z,99.9
2022-10-04T07:16:43.499Z,99.9
2022-10-04T07:18:43.245Z,99.9
2022-10-04T07:20:42.974Z,99.9
2022-10-04T07:22:46.150Z,99.9
2022-10-04T07:24:45.897Z,99.9
2022-10-04T07:26:45.633Z,99.9
2022-10-04T07:30:45.218Z,99.9
2022-10-04T07:32:44.873Z,99.9
2022-10-04T07:34:44.596Z,99.9
2022-10-04T07:36:47.776Z,99.9
2022-10-04T07:38:47.515Z,99.9
2022-10-04T07:40:47.247Z,99.9
2022-10-04T07:42:46.965Z,99.9
2022-10-04T07:44:46.715Z,99.9
2022-10-04T07:46:46.442Z,99.9
2022-10-04T07:48:46.180Z,99.9
2022-10-04T07:50:49.319Z,99.9
2022-10-04T07:52:49.044Z,99.9
2022-10-04T07:54:48.802Z,99.9
2022-10-04T08:03:07.026Z,99.9
2022-10-04T08:05:06.671Z,99.9
2022-10-04T08:11:07.416Z,99.9
2022-10-04T08:13:07.056Z,99.9
2022-10-04T08:15:06.811Z,99.9
2022-10-04T08:17:14.471Z,99.9
2022-10-04T08:19:09.664Z,99.9
2022-10-04T08:21:09.338Z,99.9
2022-10-04T08:23:09.050Z,99.9
2022-10-04T08:25:08.910Z,99.9
2022-10-04T08:27:08.505Z,99.9
2022-10-04T08:29:08.289Z,99.9
2022-10-04T08:31:11.353Z,99.9
2022-10-04T08:33:11.023Z,99.9
2022-10-04T08:35:10.730Z,99.9
2022-10-04T08:37:10.408Z,99.9
2022-10-04T08:39:10.086Z,99.9
2022-10-04T08:41:09.772Z,99.9
2022-10-04T08:43:09.471Z,99.9
2022-10-04T08:45:12.567Z,99.9
2022-10-04T08:47:12.253Z,99.9
2022-10-04T08:49:11.909Z,99.9
2022-10-04T08:50:13.428Z,99.9
2022-10-04T08:52:13.089Z,99.9
2022-10-04T08:54:12.764Z,99.9
2022-10-04T08:56:12.387Z,99.9
2022-10-04T08:58:15.453Z,99.9
2022-10-04T09:00:15.110Z,99.9
2022-10-04T09:02:14.766Z,99.9
2022-10-04T09:04:14.365Z,99.9
2022-10-04T09:06:13.991Z,99.9
2022-10-04T09:08:13.624Z,99.9
2022-10-04T09:10:13.272Z,99.9
2022-10-04T09:12:16.307Z,99.9
2022-10-04T09:16:15.622Z,99.9
2022-10-04T09:18:15.194Z,99.9
2022-10-04T09:20:37.170Z,99.9
2022-10-04T09:22:14.437Z,99.9
2022-10-04T09:24:14.050Z,99.9
2022-10-04T09:26:17.054Z,99.9
2022-10-04T09:28:16.712Z,99.9
2022-10-04T09:30:16.279Z,99.9
2022-10-04T09:32:15.873Z,99.9
2022-10-04T09:36:15.026Z,99.9
2022-10-04T09:38:14.632Z,99.9
2022-10-04T09:40:17.579Z,99.9
2022-10-04T09:42:17.109Z,99.9
2022-10-04T09:44:16.673Z,99.7
2022-10-04T09:45:18.143Z,99.7
2022-10-04T09:53:19.585Z,91.6
2022-10-04T09:55:19.043Z,91.4
2022-10-04T09:57:18.495Z,91
2022-10-04T09:59:17.824Z,91.1
2022-10-04T10:03:16.551Z,91
2022-10-04T10:05:15.914Z,91.1
2022-10-04T10:07:18.553Z,91.1
2022-10-04T10:09:17.844Z,87.5
2022-10-04T10:11:17.128Z,87.7
2022-10-04T10:13:16.388Z,87.6
2022-10-04T10:15:15.622Z,86.9
2022-10-04T10:23:15.963Z,87.3
2022-10-04T10:31:12.875Z,88.4
2022-10-04T10:33:12.041Z,88.6
2022-10-04T10:35:14.598Z,87.8
2022-10-04T10:37:13.791Z,86.8
2022-10-04T10:39:12.979Z,90.2
2022-10-04T10:40:14.259Z,84.6
2022-10-04T10:42:13.457Z,83.6
2022-10-04T10:44:12.631Z,81.8
2022-10-04T10:48:14.372Z,84.5
2022-10-04T10:50:13.555Z,82.7
2022-10-04T10:52:12.695Z,81.7
2022-10-04T10:54:11.861Z,81.4
2022-10-04T10:56:11.052Z,81
2022-10-04T10:58:10.214Z,83.2
2022-10-04T11:00:09.402Z,83.6
2022-10-04T11:02:12.061Z,79.7
2022-10-04T11:04:11.074Z,80.2
2022-10-04T11:06:10.219Z,79.9
2022-10-04T11:08:09.372Z,79.7
2022-10-04T11:10:08.572Z,79.6
2022-10-04T11:12:07.711Z,79.6
2022-10-04T11:14:06.876Z,78.5
2022-10-04T11:16:09.422Z,78.6
2022-10-04T11:18:08.561Z,73.7
2022-10-04T11:20:07.700Z,74.2
2022-10-04T11:22:06.862Z,74.4
2022-10-04T11:28:04.361Z,77.1
2022-10-04T11:44:26.007Z,79.9
2022-10-04T11:54:21.673Z,70.9
2022-10-04T12:04:20.695Z,72.8
2022-10-04T12:06:19.807Z,72.7
2022-10-04T12:08:18.946Z,73
2022-10-04T12:10:21.423Z,72.4
2022-10-04T12:14:19.682Z,71.6
2022-10-04T12:16:18.889Z,71.2
2022-10-04T12:18:17.938Z,71.4
2022-10-04T12:22:16.218Z,71.9
2022-10-04T12:24:18.706Z,70.8
2022-10-04T12:28:17.052Z,70.3
2022-10-04T12:33:16.535Z,71.9
2022-10-04T12:35:15.713Z,75.8
2022-10-04T12:37:18.243Z,81
2022-10-04T12:39:17.502Z,80.5
2022-10-04T12:41:16.608Z,73.3
2022-10-04T12:43:15.832Z,74.5
2022-10-04T12:45:15.053Z,75.6
2022-10-04T12:47:14.230Z,75.6
2022-10-04T12:49:13.468Z,70
2022-10-04T12:51:16.049Z,71.2
2022-10-04T12:53:15.271Z,72
2022-10-04T12:55:14.501Z,71.4
2022-10-04T12:57:13.755Z,69.2
2022-10-04T12:59:12.950Z,69.2
2022-10-04T13:01:12.288Z,69.3
2022-10-04T13:03:11.442Z,71.4
2022-10-04T13:05:14.044Z,70.7
2022-10-04T13:07:13.274Z,68.8
2022-10-04T13:09:12.516Z,66.8
2022-10-04T13:11:11.781Z,66.5
2022-10-04T13:13:11.012Z,65.7
2022-10-04T13:15:10.318Z,65.6
2022-10-04T13:17:34.468Z,65
2022-10-04T13:19:12.092Z,63.8
2022-10-04T13:21:11.276Z,63.7
2022-10-04T13:23:10.519Z,63.3
2022-10-04T13:28:10.281Z,62.6
2022-10-04T13:30:09.448Z,62.5
2022-10-04T13:32:12.068Z,61.9
2022-10-04T13:34:11.228Z,61.2
2022-10-04T13:36:10.441Z,61.3
2022-10-04T13:38:09.650Z,60.9
2022-10-04T13:40:08.888Z,60.8
2022-10-04T13:42:12.291Z,60.3
2022-10-04T13:44:07.283Z,60.1
2022-10-04T13:46:09.956Z,59.7
2022-10-04T13:48:12.823Z,59.7
2022-10-04T13:52:07.493Z,59.6
2022-10-04T13:54:06.716Z,59.7
2022-10-04T13:56:07.495Z,59.9
2022-10-04T13:58:06.844Z,59.7
2022-10-04T14:00:09.241Z,59.7
2022-10-04T14:02:08.491Z,59.8
2022-10-04T14:04:07.708Z,60
2022-10-04T14:06:06.935Z,60
2022-10-04T14:08:06.198Z,60.6
2022-10-04T14:10:05.419Z,60.9
2022-10-04T14:12:04.678Z,61.3
2022-10-04T14:14:07.258Z,61.6
2022-10-04T14:18:05.766Z,61.8
2022-10-04T14:19:07.057Z,62.3
2022-10-04T14:27:07.687Z,63.7
2022-10-04T14:29:06.961Z,62.6
2022-10-04T14:33:05.642Z,62.2
2022-10-04T14:35:05.060Z,62.1
2022-10-04T14:37:04.457Z,62.4
2022-10-04T14:39:03.854Z,63.9
2022-10-04T14:51:03.711Z,69.3
2022-10-04T14:57:05.340Z,68.1
2022-10-04T14:59:04.756Z,69.1
2022-10-04T15:03:05.563Z,71.6
2022-10-04T15:05:03.097Z,72.1
2022-10-04T15:07:02.569Z,72.5
2022-10-04T15:09:05.434Z,75
2022-10-04T15:11:04.863Z,76.1
2022-10-04T15:13:12.503Z,77.8
2022-10-04T15:15:25.686Z,79.1
2022-10-04T15:17:25.150Z,79.5
2022-10-04T15:19:24.596Z,79.8
2022-10-04T15:21:32.120Z,79.9
2022-10-04T15:23:26.991Z,77.4
2022-10-04T15:25:26.455Z,76.8
2022-10-04T15:27:25.911Z,76.7
2022-10-04T15:29:25.373Z,76.6
2022-10-04T15:31:24.934Z,79.8
2022-10-04T15:33:24.335Z,80.4
2022-10-04T15:35:27.245Z,80.3
2022-10-04T15:37:26.719Z,76
2022-10-04T15:39:26.210Z,75.6
2022-10-04T15:41:25.656Z,75.5
2022-10-04T15:43:25.123Z,75.2
2022-10-04T15:45:24.615Z,78.7
2022-10-04T15:47:24.073Z,79.1
2022-10-04T15:49:26.992Z,82.1
2022-10-04T15:51:26.471Z,82.5
2022-10-04T15:53:25.940Z,83.8
2022-10-04T15:55:25.417Z,85.9
2022-10-04T15:57:24.880Z,89.7
2022-10-04T15:59:24.367Z,90.3
2022-10-04T16:01:23.889Z,91.2
2022-10-04T16:03:26.728Z,92.9
2022-10-04T16:08:27.196Z,96.3
2022-10-04T16:10:26.656Z,98.1
2022-10-04T16:12:26.132Z,98.4
2022-10-04T16:14:25.636Z,98.7
2022-10-04T16:18:28.039Z,99.9
2022-10-04T16:20:27.552Z,99.9
2022-10-04T16:22:27.066Z,99.9
2022-10-04T16:28:25.609Z,99.9
2022-10-04T16:30:29.089Z,99.9
2022-10-04T16:32:27.996Z,99.9
2022-10-04T16:34:27.495Z,99.9
2022-10-04T16:36:27.039Z,99.9
2022-10-04T16:38:26.571Z,99.9
2022-10-04T16:40:26.094Z,99.9
2022-10-04T16:42:25.636Z,99.9
2022-10-04T16:44:28.589Z,99.9
2022-10-04T16:52:26.729Z,99.9
2022-10-04T16:54:26.305Z,99.9
2022-10-04T16:56:25.844Z,99.9
2022-10-04T16:58:28.827Z,99.9
2022-10-04T17:00:28.452Z,99.9
2022-10-04T17:02:28.053Z,99.9
2022-10-04T17:03:29.428Z,99.9
2022-10-04T17:05:28.970Z,99.9
2022-10-04T17:07:28.569Z,99.9
2022-10-04T17:09:28.120Z,99.9
2022-10-04T17:11:31.068Z,99.9
2022-10-04T17:13:30.670Z,99.9
2022-10-04T17:15:30.238Z,99.9
2022-10-04T17:17:29.829Z,99.9
2022-10-04T17:19:29.404Z,99.9
2022-10-04T17:21:28.962Z,99.9
2022-10-04T17:23:28.551Z,99.9
2022-10-04T17:25:31.570Z,99.9
2022-10-04T17:27:31.163Z,99.9
2022-10-04T17:29:30.735Z,99.9
2022-10-04T17:31:30.387Z,99.9
2022-10-04T17:33:29.912Z,99.9
2022-10-04T17:35:29.478Z,99.9
2022-10-04T17:37:29.052Z,99.9
2022-10-04T17:39:32.040Z,99.9
2022-10-04T17:41:31.600Z,99.9
2022-10-04T17:43:31.172Z,99.9
2022-10-04T17:45:30.735Z,99.9
2022-10-04T17:47:30.294Z,99.9
2022-10-04T17:49:29.856Z,99.9
2022-10-04T17:51:29.417Z,99.9
2022-10-04T17:53:32.391Z,99.9
2022-10-04T17:55:31.954Z,99.9
2022-10-04T17:57:31.514Z,99.9
2022-10-04T17:58:33.036Z,99.9
2022-10-04T18:00:32.581Z,99.9
2022-10-04T18:02:32.241Z,99.9
2022-10-04T18:08:34.665Z,99.9
2022-10-04T18:10:34.198Z,99.9
2022-10-04T18:12:33.764Z,99.9
2022-10-04T18:14:33.335Z,99.9
2022-10-04T18:16:32.936Z,99.9
2022-10-04T18:18:32.438Z,99.9
2022-10-04T18:20:35.419Z,99.9
2022-10-04T18:22:34.958Z,99.9
2022-10-04T18:28:33.721Z,99.9
2022-10-04T18:30:33.217Z,99.9
2022-10-04T18:32:32.776Z,99.9
2022-10-04T18:34:35.773Z,99.9
2022-10-04T18:36:35.325Z,99.9
2022-10-04T18:38:34.869Z,99.9
2022-10-04T18:40:34.444Z,99.9
2022-10-04T18:42:33.995Z,99.9
2022-10-04T18:44:33.581Z,99.9
2022-10-04T18:46:33.200Z,99.9
2022-10-04T18:48:36.107Z,99.9
2022-10-04T18:50:35.672Z,99.9
2022-10-04T18:52:35.236Z,99.9
2022-10-04T18:54:56.838Z,99.9
2022-10-04T18:56:56.407Z,99.9
2022-10-04T18:58:55.983Z,99.9
2022-10-04T19:00:59.050Z,99.9
2022-10-04T19:02:58.590Z,99.9
2022-10-04T19:04:58.140Z,99.9
2022-10-04T19:06:57.720Z,99.9
2022-10-04T19:08:57.263Z,99.9
2022-10-04T19:10:56.848Z,99.9
2022-10-04T19:12:56.422Z,99.9
2022-10-04T19:14:59.424Z,99.9
2022-10-04T19:16:59.047Z,99.9
2022-10-04T19:18:58.590Z,99.9
2022-10-04T19:20:58.183Z,99.9
2022-10-04T19:22:57.741Z,99.9
2022-10-04T19:24:57.354Z,99.9
2022-10-04T19:26:56.915Z,99.9
2022-10-04T19:28:59.898Z,99.9
2022-10-04T19:30:59.524Z,99.9
2022-10-04T19:32:59.103Z,99.9
2022-10-04T19:34:58.663Z,99.9
2022-10-04T19:36:58.256Z,99.9
2022-10-04T19:40:58.974Z,99.9
2022-10-04T19:43:01.943Z,99.9
2022-10-04T19:45:01.530Z,99.9
2022-10-04T19:47:01.107Z,99.9
2022-10-04T19:48:02.747Z,99.9
2022-10-04T19:50:02.195Z,99.9
2022-10-04T19:52:01.786Z,99.9
2022-10-04T19:54:01.357Z,99.9
2022-10-04T19:56:04.368Z,99.9
2022-10-04T19:58:03.938Z,99.9
2022-10-04T20:04:02.710Z,99.9
2022-10-04T20:06:02.321Z,99.9
2022-10-04T20:08:01.901Z,99.9
2022-10-04T20:10:04.905Z,99.9
2022-10-04T20:12:04.507Z,99.9
2022-10-04T20:14:04.112Z,99.9
2022-10-04T20:16:03.761Z,99.9
2022-10-04T20:18:03.287Z,99.9
2022-10-04T20:20:02.860Z,99.9
2022-10-04T20:22:02.453Z,99.9
2022-10-04T20:24:05.458Z,99.9
2022-10-04T20:26:05.062Z,99.9
2022-10-04T20:28:04.641Z,99.9
2022-10-04T20:30:04.420Z,99.9
2022-10-04T20:32:03.900Z,99.9
2022-10-04T20:34:03.445Z,99.9
2022-10-04T20:36:02.931Z,99.9
2022-10-04T20:38:30.479Z,99.9
2022-10-04T20:40:05.584Z,99.9
2022-10-04T20:42:05.066Z,99.9
2022-10-04T20:43:10.294Z,99.9
2022-10-04T20:45:06.117Z,99.9
2022-10-04T20:47:05.684Z,99.9
2022-10-04T20:49:05.259Z,99.9
2022-10-04T20:51:08.238Z,99.9
2022-10-04T20:53:07.795Z,99.9
2022-10-04T20:55:07.326Z,99.9
2022-10-04T20:57:06.882Z,99.9
2022-10-04T20:59:06.447Z,99.9
2022-10-04T21:01:06.010Z,99.9
2022-10-04T21:03:05.545Z,99.9
2022-10-04T21:05:08.566Z,99.9
2022-10-04T21:07:08.143Z,99.9
2022-10-04T21:09:07.651Z,99.9
2022-10-04T21:11:07.242Z,99.9
2022-10-04T21:13:06.794Z,99.9
2022-10-04T21:15:06.352Z,99.9
2022-10-04T21:17:06.057Z,99.9
2022-10-04T21:19:08.943Z,99.9
2022-10-04T21:23:08.058Z,99.9
2022-10-04T21:25:07.596Z,99.9
2022-10-04T21:27:07.173Z,99.9
2022-10-04T21:29:06.750Z,99.9
2022-10-04T21:31:06.310Z,99.9
2022-10-04T21:33:09.272Z,99.9
2022-10-04T21:35:08.858Z,99.9
2022-10-04T21:37:08.431Z,99.9
2022-10-04T21:38:09.913Z,99.9
2022-10-04T21:40:09.470Z,99.9
2022-10-04T21:42:09.044Z,99.9
2022-10-04T21:44:08.654Z,99.9
2022-10-04T21:46:13.511Z,99.9
2022-10-04T21:48:11.201Z,99.9
2022-10-04T21:50:10.748Z,99.9
2022-10-04T21:52:10.317Z,99.9
2022-10-04T21:54:09.862Z,99.9
2022-10-04T21:56:09.461Z,99.9
2022-10-04T21:58:09.020Z,99.9
2022-10-04T22:00:18.423Z,99.9
2022-10-04T22:02:11.671Z,99.9
2022-10-04T22:04:11.181Z,99.9
2022-10-04T22:08:10.283Z,99.9
2022-10-04T22:10:09.882Z,99.9
2022-10-04T22:12:09.436Z,99.9
2022-10-04T22:20:11.171Z,99.9
2022-10-04T22:22:10.774Z,99.9
2022-10-04T22:24:10.320Z,99.9
2022-10-04T22:26:09.892Z,99.9
2022-10-04T22:28:12.905Z,99.9
2022-10-04T22:30:12.466Z,99.9
2022-10-04T22:32:12.141Z,99.9
2022-10-04T22:34:31.129Z,99.9
2022-10-04T22:36:30.729Z,99.9
2022-10-04T22:38:30.283Z,99.9
2022-10-04T22:42:32.821Z,99.9
2022-10-04T22:44:32.444Z,99.9
2022-10-04T22:46:31.984Z,99.9
2022-10-04T22:48:31.551Z,99.9
2022-10-04T22:50:31.119Z,99.9
2022-10-04T22:52:30.681Z,99.9
2022-10-04T22:54:33.673Z,99.9
2022-10-04T22:56:33.229Z,99.9
2022-10-04T22:58:32.785Z,99.9
2022-10-04T23:00:32.375Z,99.9
2022-10-04T23:02:31.985Z,99.9
2022-10-04T23:04:31.617Z,99.9
2022-10-04T23:06:31.050Z,99.9
2022-10-04T23:08:34.059Z,99.9
2022-10-04T23:10:33.582Z,99.9
2022-10-04T23:12:33.168Z,99.9
2022-10-04T23:14:32.748Z,99.9
2022-10-04T23:16:32.357Z,99.9
2022-10-04T23:18:31.867Z,99.9
2022-10-04T23:20:31.439Z,99.9
2022-10-04T23:22:34.433Z,99.9
2022-10-04T23:24:34.002Z,99.9
2022-10-04T23:26:33.579Z,99.9
2022-10-04T23:27:35.067Z,99.9
2022-10-04T23:29:34.652Z,99.9
2022-10-04T23:31:34.264Z,99.9
2022-10-04T23:33:33.777Z,99.9
2022-10-04T23:35:36.783Z,99.9
2022-10-04T23:37:36.332Z,99.9
2022-10-04T23:39:35.914Z,99.9
2022-10-04T23:41:35.513Z,99.9
2022-10-04T23:43:35.064Z,99.9
2022-10-04T23:45:34.738Z,99.9
2022-10-04T23:47:34.246Z,99.9
2022-10-04T23:49:37.249Z,99.9
2022-10-04T23:51:36.831Z,99.9
2022-10-04T23:53:36.408Z,99.9
2022-10-04T23:55:35.969Z,99.9
2022-10-04T23:57:35.546Z,99.9
